createdAt,value
2018-12-12T00:00:12.737Z,90.90
2018-12-12T00:02:39.045Z,91.10
2018-12-12T00:05:05.550Z,90.90
2018-12-12T00:07:31.935Z,90.80
2018-12-12T00:09:58.216Z,90.80
2018-12-12T00:12:24.476Z,90.70
2018-12-12T00:14:50.755Z,90.70
2018-12-12T00:17:17.044Z,90.70
2018-12-12T00:19:43.282Z,90.70
2018-12-12T00:22:09.526Z,90.80
2018-12-12T00:24:35.791Z,90.70
2018-12-12T00:27:02.202Z,90.80
2018-12-12T00:29:28.444Z,90.90
2018-12-12T00:31:54.707Z,90.70
2018-12-12T00:34:20.988Z,90.70
2018-12-12T00:36:47.248Z,90.50
2018-12-12T00:39:13.494Z,90.50
2018-12-12T00:41:39.790Z,90.60
2018-12-12T00:44:06.180Z,90.60
2018-12-12T00:46:32.902Z,90.60
2018-12-12T00:48:59.164Z,90.60
2018-12-12T00:51:25.426Z,90.70
2018-12-12T00:53:51.703Z,90.40
2018-12-12T00:56:17.951Z,90.40
2018-12-12T00:58:44.244Z,90.60
2018-12-12T01:01:10.495Z,90.80
2018-12-12T01:03:36.763Z,90.70
2018-12-12T01:06:03.041Z,90.70
2018-12-12T01:08:29.278Z,90.50
2018-12-12T01:13:55.068Z,90.40
2018-12-12T01:16:21.332Z,90.40
2018-12-12T01:18:47.582Z,90.70
2018-12-12T01:21:13.827Z,90.60
2018-12-12T01:23:40.107Z,90.50
2018-12-12T01:26:06.398Z,90.60
2018-12-12T01:28:32.650Z,90.90
2018-12-12T01:30:58.887Z,91.20
2018-12-12T01:33:25.151Z,91.40
2018-12-12T01:35:51.414Z,91.50
2018-12-12T01:38:17.691Z,91.70
2018-12-12T01:40:43.963Z,91.70
2018-12-12T01:43:10.263Z,91.70
2018-12-12T01:45:36.485Z,91.80
2018-12-12T01:48:02.739Z,92.10
2018-12-12T01:50:29.044Z,92.10
2018-12-12T01:52:55.290Z,92.20
2018-12-12T01:55:21.535Z,92.50
2018-12-12T01:57:47.806Z,92.50
2018-12-12T02:00:14.053Z,92.90
2018-12-12T02:02:40.299Z,92.60
2018-12-12T02:05:06.584Z,92.50
2018-12-12T02:07:32.853Z,92.60
2018-12-12T02:09:59.103Z,92.60
2018-12-12T02:12:25.364Z,92.50
2018-12-12T02:14:51.666Z,92.80
2018-12-12T02:17:17.917Z,92.50
2018-12-12T02:19:44.174Z,92.70
2018-12-12T02:22:10.446Z,92.70
2018-12-12T02:24:36.680Z,93.00
2018-12-12T02:27:02.973Z,93.10
2018-12-12T02:29:29.232Z,92.90
2018-12-12T02:31:55.488Z,93.10
2018-12-12T02:34:21.750Z,93.00
2018-12-12T02:36:48.020Z,93.30
2018-12-12T02:39:14.315Z,93.30
2018-12-12T02:41:40.580Z,93.20
2018-12-12T02:44:06.827Z,93.10
2018-12-12T02:46:33.135Z,93.00
2018-12-12T02:48:59.441Z,92.90
2018-12-12T02:51:25.709Z,92.80
2018-12-12T02:53:51.987Z,92.60
2018-12-12T02:56:18.247Z,92.80
2018-12-12T02:58:44.527Z,92.90
2018-12-12T03:01:10.834Z,93.00
2018-12-12T03:03:37.084Z,92.80
2018-12-12T03:06:03.356Z,92.90
2018-12-12T03:08:29.610Z,93.00
2018-12-12T03:10:55.889Z,92.90
2018-12-12T03:13:22.186Z,93.00
2018-12-12T03:15:48.440Z,92.80
2018-12-12T03:18:14.713Z,92.70
2018-12-12T03:20:40.973Z,92.70
2018-12-12T03:23:07.223Z,92.70
2018-12-12T03:25:33.548Z,92.80
2018-12-12T03:27:59.812Z,92.60
2018-12-12T03:30:26.083Z,92.50
2018-12-12T03:32:52.426Z,92.50
2018-12-12T03:35:18.672Z,92.50
2018-12-12T03:37:44.988Z,92.50
2018-12-12T03:40:11.698Z,92.20
2018-12-12T03:42:38.390Z,92.20
2018-12-12T03:45:04.895Z,92.70
2018-12-12T03:47:31.155Z,92.40
2018-12-12T03:49:57.410Z,92.70
2018-12-12T03:52:23.692Z,92.80
2018-12-12T03:54:49.924Z,92.90
2018-12-12T03:57:16.188Z,92.80
2018-12-12T03:59:42.467Z,92.70
2018-12-12T04:02:08.716Z,92.50
2018-12-12T04:04:35.010Z,92.70
2018-12-12T04:07:01.265Z,92.70
2018-12-12T04:09:27.561Z,92.90
2018-12-12T04:11:53.812Z,92.70
2018-12-12T04:14:20.071Z,92.80
2018-12-12T04:16:46.374Z,92.80
2018-12-12T04:19:12.769Z,92.70
2018-12-12T04:21:39.031Z,92.60
2018-12-12T04:24:05.294Z,92.70
2018-12-12T04:26:31.598Z,92.70
2018-12-12T04:28:57.900Z,92.60
2018-12-12T04:31:24.184Z,92.60
2018-12-12T04:33:50.489Z,92.80
2018-12-12T04:36:16.739Z,92.60
2018-12-12T04:38:43.020Z,92.50
2018-12-12T04:41:09.299Z,92.70
2018-12-12T04:43:35.546Z,92.60
2018-12-12T04:46:01.783Z,92.50
2018-12-12T04:48:28.179Z,92.60
2018-12-12T04:50:54.470Z,92.70
2018-12-12T04:53:20.776Z,92.50
2018-12-12T04:55:47.075Z,92.70
2018-12-12T04:58:13.367Z,92.70
2018-12-12T05:00:39.680Z,92.80
2018-12-12T05:03:06.208Z,92.60
2018-12-12T05:05:32.484Z,92.70
2018-12-12T05:07:58.806Z,92.90
2018-12-12T05:10:25.100Z,92.90
2018-12-12T05:12:51.379Z,93.00
2018-12-12T05:15:17.688Z,93.20
2018-12-12T05:17:43.944Z,93.10
2018-12-12T05:20:10.238Z,93.20
2018-12-12T05:22:36.557Z,93.20
2018-12-12T05:25:03.524Z,93.20
2018-12-12T05:27:29.842Z,93.30
2018-12-12T05:29:56.106Z,93.60
2018-12-12T05:32:22.386Z,93.80
2018-12-12T05:34:48.631Z,93.60
2018-12-12T05:37:14.997Z,93.50
2018-12-12T05:39:41.296Z,93.30
2018-12-12T05:42:07.573Z,93.20
2018-12-12T05:44:33.858Z,93.40
2018-12-12T05:47:00.122Z,93.50
2018-12-12T05:49:26.422Z,93.30
2018-12-12T05:51:52.719Z,93.10
2018-12-12T05:54:18.995Z,93.20
2018-12-12T05:56:45.258Z,93.40
2018-12-12T05:59:11.531Z,93.50
2018-12-12T06:01:37.874Z,93.50
2018-12-12T06:04:04.178Z,93.70
2018-12-12T06:06:30.487Z,93.80
2018-12-12T06:08:56.778Z,93.30
2018-12-12T06:11:23.100Z,93.30
2018-12-12T06:13:49.387Z,93.30
2018-12-12T06:16:15.684Z,93.40
2018-12-12T06:18:41.938Z,93.50
2018-12-12T06:21:08.227Z,93.70
2018-12-12T06:23:34.509Z,93.40
2018-12-12T06:26:00.773Z,93.40
2018-12-12T06:28:27.051Z,93.30
2018-12-12T06:30:53.352Z,93.20
2018-12-12T06:33:19.610Z,93.20
2018-12-12T06:35:45.874Z,93.10
2018-12-12T06:38:12.156Z,93.30
2018-12-12T06:40:38.544Z,93.30
2018-12-12T06:43:04.815Z,93.20
2018-12-12T06:45:31.080Z,93.40
2018-12-12T06:47:57.336Z,93.30
2018-12-12T06:50:23.605Z,93.40
2018-12-12T06:52:49.893Z,93.50
2018-12-12T06:55:16.176Z,93.40
2018-12-12T06:57:42.455Z,93.40
2018-12-12T07:00:08.902Z,93.50
2018-12-12T07:02:35.199Z,93.30
2018-12-12T07:05:01.499Z,93.10
2018-12-12T07:07:27.994Z,93.00
2018-12-12T07:09:54.267Z,93.40
2018-12-12T07:12:20.539Z,93.10
2018-12-12T07:14:46.803Z,93.30
2018-12-12T07:17:13.101Z,93.20
2018-12-12T07:19:39.354Z,93.20
2018-12-12T07:22:05.658Z,93.20
2018-12-12T07:24:31.919Z,93.20
2018-12-12T07:26:58.186Z,93.20
2018-12-12T07:29:24.475Z,93.20
2018-12-12T07:31:50.751Z,93.50
2018-12-12T07:34:17.219Z,93.30
2018-12-12T07:36:43.467Z,93.20
2018-12-12T07:39:09.789Z,93.40
2018-12-12T07:41:36.263Z,93.20
2018-12-12T07:44:02.802Z,93.20
2018-12-12T07:46:29.476Z,93.50
2018-12-12T07:48:55.777Z,93.30
2018-12-12T07:51:22.035Z,93.50
2018-12-12T07:53:48.296Z,93.60
2018-12-12T07:56:14.558Z,93.40
2018-12-12T07:58:40.871Z,93.60
2018-12-12T08:01:07.117Z,93.50
2018-12-12T08:03:33.409Z,93.70
2018-12-12T08:05:59.679Z,93.20
2018-12-12T08:08:25.935Z,93.30
2018-12-12T08:10:52.259Z,93.30
2018-12-12T08:13:18.525Z,93.30
2018-12-12T08:15:44.817Z,93.40
2018-12-12T08:18:11.103Z,93.20
2018-12-12T08:20:37.375Z,93.50
2018-12-12T08:23:03.851Z,93.40
2018-12-12T08:25:30.386Z,93.60
2018-12-12T08:27:56.662Z,93.40
2018-12-12T08:30:22.944Z,93.40
2018-12-12T08:32:49.187Z,93.60
2018-12-12T08:35:15.482Z,93.50
2018-12-12T08:37:41.745Z,92.90
2018-12-12T08:40:08.199Z,92.90
2018-12-12T08:42:34.611Z,93.10
2018-12-12T08:45:00.941Z,92.90
2018-12-12T08:47:27.217Z,93.20
2018-12-12T08:49:53.459Z,93.40
2018-12-12T08:52:19.716Z,93.40
2018-12-12T08:54:45.967Z,93.10
2018-12-12T08:57:12.579Z,92.90
2018-12-12T08:59:38.874Z,92.50
2018-12-12T09:02:05.536Z,92.40
2018-12-12T09:04:31.947Z,92.40
2018-12-12T09:06:58.224Z,92.50
2018-12-12T09:09:24.498Z,92.50
2018-12-12T09:11:50.734Z,92.80
2018-12-12T09:14:16.982Z,92.50
2018-12-12T09:16:43.279Z,92.20
2018-12-12T09:19:09.567Z,92.30
2018-12-12T09:21:35.929Z,92.60
2018-12-12T09:24:02.265Z,92.90
2018-12-12T09:26:28.553Z,92.80
2018-12-12T09:28:54.803Z,93.00
2018-12-12T09:31:21.058Z,92.60
2018-12-12T09:33:47.339Z,92.40
2018-12-12T09:36:13.589Z,92.50
2018-12-12T09:38:39.861Z,92.30
2018-12-12T09:41:06.148Z,91.70
2018-12-12T09:43:32.884Z,91.20
2018-12-12T09:45:59.230Z,89.70
2018-12-12T09:48:25.501Z,89.70
2018-12-12T09:50:51.788Z,88.70
2018-12-12T09:53:18.086Z,87.60
2018-12-12T09:55:44.477Z,87.50
2018-12-12T09:58:10.757Z,90.00
2018-12-12T10:00:37.043Z,89.90
2018-12-12T10:03:03.307Z,87.70
2018-12-12T10:05:29.846Z,87.60
2018-12-12T10:07:56.109Z,88.20
2018-12-12T10:10:22.351Z,89.60
2018-12-12T10:12:48.612Z,87.50
2018-12-12T10:15:14.927Z,85.60
2018-12-12T10:17:41.211Z,87.20
2018-12-12T10:20:07.482Z,87.70
2018-12-12T10:22:33.752Z,87.30
2018-12-12T10:25:00.017Z,84.20
2018-12-12T10:27:26.288Z,84.20
2018-12-12T10:29:52.603Z,84.70
2018-12-12T10:32:18.923Z,83.20
2018-12-12T10:34:45.251Z,82.80
2018-12-12T10:37:11.521Z,82.80
2018-12-12T10:39:37.775Z,80.80
2018-12-12T10:42:04.112Z,80.50
2018-12-12T10:44:30.339Z,80.30
2018-12-12T10:46:56.587Z,79.70
2018-12-12T10:49:22.867Z,78.60
2018-12-12T10:51:49.153Z,80.40
2018-12-12T10:54:15.434Z,80.50
2018-12-12T10:56:41.668Z,81.00
2018-12-12T10:59:07.991Z,81.30
2018-12-12T11:01:40.359Z,80.90
2018-12-12T11:04:06.595Z,80.10
2018-12-12T11:06:32.834Z,79.10
2018-12-12T11:08:59.145Z,79.20
2018-12-12T11:11:25.431Z,79.00
2018-12-12T11:13:51.691Z,79.10
2018-12-12T11:16:17.959Z,79.00
2018-12-12T11:18:44.251Z,78.90
2018-12-12T11:21:10.487Z,78.00
2018-12-12T11:23:36.771Z,78.10
2018-12-12T11:26:03.046Z,79.10
2018-12-12T11:28:29.293Z,79.10
2018-12-12T11:30:55.620Z,78.00
2018-12-12T11:33:21.875Z,78.00
2018-12-12T11:35:48.116Z,79.20
2018-12-12T11:38:14.411Z,80.00
2018-12-12T11:40:40.690Z,80.50
2018-12-12T11:43:06.958Z,80.80
2018-12-12T11:45:33.240Z,80.10
2018-12-12T11:47:59.613Z,79.10
2018-12-12T11:50:25.858Z,78.40
2018-12-12T11:52:52.155Z,77.70
2018-12-12T11:55:18.451Z,77.50
2018-12-12T11:57:44.754Z,76.60
2018-12-12T12:00:11.206Z,76.70
2018-12-12T12:02:37.494Z,77.20
2018-12-12T12:05:04.791Z,77.30
2018-12-12T12:07:31.052Z,78.00
2018-12-12T12:09:57.334Z,76.30
2018-12-12T12:12:23.573Z,76.20
2018-12-12T12:14:49.839Z,76.90
2018-12-12T12:17:16.103Z,76.50
2018-12-12T12:19:42.373Z,77.60
2018-12-12T12:22:08.656Z,77.70
2018-12-12T12:24:34.913Z,77.40
2018-12-12T12:27:01.175Z,76.90
2018-12-12T12:29:27.442Z,76.10
2018-12-12T12:31:53.691Z,75.60
2018-12-12T12:34:19.971Z,76.20
2018-12-12T12:36:46.665Z,77.00
2018-12-12T12:39:12.917Z,77.80
2018-12-12T12:41:39.216Z,77.10
2018-12-12T12:44:05.509Z,77.30
2018-12-12T12:46:31.772Z,78.10
2018-12-12T12:48:58.059Z,76.80
2018-12-12T12:51:24.299Z,77.30
2018-12-12T12:53:50.563Z,77.50
2018-12-12T12:56:16.850Z,78.00
2018-12-12T12:58:43.110Z,77.30
2018-12-12T13:01:09.384Z,76.60
2018-12-12T13:03:35.639Z,75.00
2018-12-12T13:06:01.921Z,76.00
2018-12-12T13:08:28.220Z,76.10
2018-12-12T13:10:54.460Z,76.10
2018-12-12T13:13:21.178Z,76.80
2018-12-12T13:15:48.083Z,76.80
2018-12-12T13:18:14.504Z,76.50
2018-12-12T13:20:40.800Z,75.60
2018-12-12T13:23:07.062Z,75.50
2018-12-12T13:25:33.326Z,76.40
2018-12-12T13:27:59.571Z,76.30
2018-12-12T13:30:25.826Z,76.00
2018-12-12T13:32:52.087Z,76.50
2018-12-12T13:35:18.343Z,76.60
2018-12-12T13:37:44.616Z,76.10
2018-12-12T13:40:11.006Z,76.90
2018-12-12T13:42:37.429Z,75.80
2018-12-12T13:45:04.418Z,75.90
2018-12-12T13:47:30.711Z,72.40
2018-12-12T13:49:56.990Z,71.80
2018-12-12T13:52:23.258Z,71.70
2018-12-12T13:54:49.535Z,71.40
2018-12-12T13:57:15.811Z,72.30
2018-12-12T13:59:42.088Z,71.90
2018-12-12T14:02:08.366Z,72.80
2018-12-12T14:04:34.631Z,73.10
2018-12-12T14:07:01.096Z,73.70
2018-12-12T14:09:27.354Z,72.90
2018-12-12T14:11:53.700Z,72.50
2018-12-12T14:14:19.980Z,72.90
2018-12-12T14:16:46.247Z,72.80
2018-12-12T14:19:12.517Z,72.70
2018-12-12T14:21:38.875Z,73.70
2018-12-12T14:24:05.165Z,74.20
2018-12-12T14:26:31.510Z,73.40
2018-12-12T14:28:57.825Z,74.00
2018-12-12T14:31:24.109Z,73.70
2018-12-12T14:33:50.388Z,74.10
2018-12-12T14:36:16.748Z,73.10
2018-12-12T14:38:43.017Z,72.90
2018-12-12T14:41:09.289Z,74.30
2018-12-12T14:43:35.572Z,74.00
2018-12-12T14:46:01.870Z,74.10
2018-12-12T14:48:30.377Z,73.70
2018-12-12T14:50:56.502Z,73.70
2018-12-12T14:53:22.861Z,74.10
2018-12-12T14:55:49.149Z,74.10
2018-12-12T14:58:15.455Z,74.10
2018-12-12T15:00:41.695Z,73.30
2018-12-12T15:03:08.089Z,73.80
2018-12-12T15:05:34.479Z,74.90
2018-12-12T15:08:00.736Z,75.50
2018-12-12T15:10:27.073Z,75.30
2018-12-12T15:12:53.430Z,75.50
2018-12-12T15:15:19.707Z,76.70
2018-12-12T15:17:46.026Z,76.30
2018-12-12T15:20:12.443Z,76.70
2018-12-12T15:22:38.786Z,76.60
2018-12-12T15:25:05.212Z,77.20
2018-12-12T15:27:31.511Z,77.10
2018-12-12T15:29:57.895Z,76.40
2018-12-12T15:32:24.769Z,77.50
2018-12-12T15:34:51.062Z,77.90
2018-12-12T15:37:17.446Z,77.00
2018-12-12T15:39:44.879Z,77.10
2018-12-12T15:42:13.624Z,77.60
2018-12-12T15:44:42.284Z,77.80
2018-12-12T15:47:09.914Z,78.00
2018-12-12T15:49:36.216Z,78.30
2018-12-12T15:52:02.655Z,78.70
2018-12-12T15:54:28.987Z,79.10
2018-12-12T15:56:55.259Z,78.70
2018-12-12T15:59:21.600Z,79.40
2018-12-12T16:01:47.911Z,78.90
2018-12-12T16:04:14.214Z,79.00
2018-12-12T16:06:40.492Z,79.30
2018-12-12T16:09:07.071Z,79.50
2018-12-12T16:11:33.339Z,79.70
2018-12-12T16:13:59.603Z,79.90
2018-12-12T16:16:25.900Z,80.00
2018-12-12T16:18:52.207Z,80.10
2018-12-12T16:21:18.514Z,80.00
2018-12-12T16:23:44.786Z,80.20
2018-12-12T16:26:11.104Z,80.30
2018-12-12T16:28:37.403Z,80.40
2018-12-12T16:31:03.763Z,80.40
2018-12-12T16:33:30.056Z,79.80
2018-12-12T16:35:56.367Z,80.00
2018-12-12T16:38:22.682Z,80.30
2018-12-12T16:40:48.931Z,80.40
2018-12-12T16:43:15.322Z,80.10
2018-12-12T16:45:41.598Z,80.10
2018-12-12T16:48:07.918Z,80.40
2018-12-12T16:50:34.216Z,80.70
2018-12-12T16:53:00.511Z,80.90
2018-12-12T16:55:26.792Z,80.90
2018-12-12T16:57:53.125Z,80.50
2018-12-12T17:00:19.383Z,79.70
2018-12-12T17:02:45.659Z,79.60
2018-12-12T17:05:11.974Z,79.30
2018-12-12T17:07:38.212Z,79.20
2018-12-12T17:10:04.972Z,79.10
2018-12-12T17:12:31.241Z,79.20
2018-12-12T17:14:57.494Z,79.40
2018-12-12T17:17:23.783Z,79.00
2018-12-12T17:19:50.189Z,79.60
2018-12-12T17:22:16.469Z,79.50
2018-12-12T17:24:42.718Z,78.50
2018-12-12T17:27:09.024Z,78.50
2018-12-12T17:29:35.282Z,78.10
2018-12-12T17:32:01.589Z,79.00
2018-12-12T17:34:27.910Z,78.80
2018-12-12T17:36:54.244Z,78.90
2018-12-12T17:39:20.526Z,78.80
2018-12-12T17:41:46.827Z,78.80
2018-12-12T17:44:13.446Z,79.10
2018-12-12T17:46:40.721Z,79.60
2018-12-12T17:49:06.989Z,79.30
2018-12-12T17:51:33.256Z,79.60
2018-12-12T17:53:59.663Z,80.00
2018-12-12T17:56:26.092Z,80.40
2018-12-12T17:58:52.715Z,80.10
2018-12-12T18:01:19.011Z,80.80
2018-12-12T18:03:45.359Z,81.00
2018-12-12T18:06:11.789Z,80.80
2018-12-12T18:08:38.048Z,80.30
2018-12-12T18:11:04.421Z,80.60
2018-12-12T18:13:30.822Z,80.90
2018-12-12T18:15:57.104Z,80.90
2018-12-12T18:18:23.390Z,81.20
2018-12-12T18:20:49.706Z,81.90
2018-12-12T18:23:16.033Z,81.10
2018-12-12T18:25:42.326Z,81.00
2018-12-12T18:28:08.722Z,81.00
2018-12-12T18:30:35.075Z,81.10
2018-12-12T18:33:01.374Z,81.00
2018-12-12T18:35:27.640Z,81.20
2018-12-12T18:37:53.934Z,81.80
2018-12-12T18:40:20.279Z,81.00
2018-12-12T18:42:46.600Z,81.30
2018-12-12T18:45:13.009Z,81.50
2018-12-12T18:47:39.564Z,81.90
2018-12-12T18:50:07.164Z,81.40
2018-12-12T18:52:33.451Z,81.20
2018-12-12T18:54:59.727Z,80.20
2018-12-12T18:57:26.141Z,79.90
2018-12-12T18:59:52.546Z,80.00
2018-12-12T19:02:18.863Z,80.00
2018-12-12T19:04:45.504Z,80.10
2018-12-12T19:07:11.836Z,79.80
2018-12-12T19:09:38.204Z,79.70
2018-12-12T19:12:04.466Z,80.00
2018-12-12T19:14:30.758Z,80.40
2018-12-12T19:16:57.213Z,80.10
2018-12-12T19:19:24.369Z,79.80
2018-12-12T19:21:50.780Z,80.20
2018-12-12T19:24:17.377Z,80.70
2018-12-12T19:26:43.937Z,80.70
2018-12-12T19:29:10.237Z,80.80
2018-12-12T19:31:36.643Z,81.10
2018-12-12T19:34:03.200Z,81.30
2018-12-12T19:36:29.477Z,81.50
2018-12-12T19:38:55.809Z,81.40
2018-12-12T19:41:22.135Z,81.50
2018-12-12T19:43:48.521Z,81.50
2018-12-12T19:46:14.801Z,81.70
2018-12-12T19:48:41.226Z,81.70
2018-12-12T19:51:07.559Z,81.80
2018-12-12T19:53:34.107Z,81.30
2018-12-12T19:56:00.483Z,81.40
2018-12-12T19:58:26.812Z,81.40
2018-12-12T20:00:53.144Z,81.40
2018-12-12T20:03:19.675Z,81.50
2018-12-12T20:05:45.989Z,81.50
2018-12-12T20:08:12.362Z,81.40
2018-12-12T20:10:38.675Z,81.40
2018-12-12T20:13:05.224Z,81.40
2018-12-12T20:15:37.778Z,81.40
2018-12-12T20:18:04.079Z,81.00
2018-12-12T20:20:31.156Z,80.80
2018-12-12T20:22:57.718Z,81.00
2018-12-12T20:25:23.957Z,81.00
2018-12-12T20:27:50.292Z,81.00
2018-12-12T20:30:16.552Z,81.10
2018-12-12T20:32:42.808Z,81.20
2018-12-12T20:35:09.152Z,81.10
2018-12-12T20:37:35.398Z,81.30
2018-12-12T20:40:02.886Z,80.90
2018-12-12T20:42:29.174Z,80.70
2018-12-12T20:44:56.753Z,80.80
2018-12-12T20:47:23.077Z,80.40
2018-12-12T20:49:49.384Z,80.70
2018-12-12T20:52:15.790Z,80.60
2018-12-12T20:54:46.649Z,80.80
2018-12-12T20:57:13.162Z,80.50
2018-12-12T20:59:39.452Z,79.20
2018-12-12T21:02:05.779Z,79.00
2018-12-12T21:04:32.115Z,78.90
2018-12-12T21:06:58.375Z,79.00
2018-12-12T21:09:24.664Z,79.90
2018-12-12T21:11:51.022Z,78.90
2018-12-12T21:14:17.336Z,79.30
2018-12-12T21:16:43.638Z,76.90
2018-12-12T21:19:10.049Z,76.70
2018-12-12T21:21:36.380Z,76.60
2018-12-12T21:24:02.839Z,76.40
2018-12-12T21:26:29.150Z,76.00
2018-12-12T21:28:55.479Z,75.30
2018-12-12T21:31:21.796Z,75.20
2018-12-12T21:33:48.113Z,76.00
2018-12-12T21:36:14.403Z,76.20
2018-12-12T21:38:40.668Z,75.10
2018-12-12T21:41:06.999Z,75.80
2018-12-12T21:43:33.300Z,74.80
2018-12-12T21:45:59.563Z,75.80
2018-12-12T21:48:25.867Z,75.60
2018-12-12T21:50:52.123Z,75.40
2018-12-12T21:53:18.480Z,75.60
2018-12-12T21:55:44.758Z,74.50
2018-12-12T21:58:11.069Z,75.00
2018-12-12T22:00:37.365Z,74.50
2018-12-12T22:03:03.674Z,74.20
2018-12-12T22:05:29.999Z,73.60
2018-12-12T22:07:56.274Z,73.60
2018-12-12T22:10:22.558Z,74.20
2018-12-12T22:12:48.865Z,75.10
2018-12-12T22:15:15.167Z,75.30
2018-12-12T22:17:41.451Z,75.70
2018-12-12T22:20:07.756Z,75.90
2018-12-12T22:22:34.038Z,75.80
2018-12-12T22:25:00.319Z,75.70
2018-12-12T22:27:26.642Z,75.90
2018-12-12T22:29:52.943Z,76.40
2018-12-12T22:32:19.252Z,75.70
2018-12-12T22:34:45.677Z,76.00
2018-12-12T22:37:11.982Z,76.10
2018-12-12T22:39:38.270Z,74.90
2018-12-12T22:42:04.539Z,73.60
2018-12-12T22:44:30.815Z,74.10
2018-12-12T22:46:57.124Z,74.30
2018-12-12T22:49:23.403Z,75.00
2018-12-12T22:51:49.854Z,75.20
2018-12-12T22:54:16.168Z,75.50
2018-12-12T22:56:42.472Z,75.50
2018-12-12T22:59:08.760Z,75.50
2018-12-12T23:01:35.206Z,75.60
2018-12-12T23:04:01.555Z,74.80
2018-12-12T23:06:27.852Z,74.40
2018-12-12T23:08:54.181Z,75.20
2018-12-12T23:11:20.424Z,75.40
2018-12-12T23:13:46.723Z,74.70
2018-12-12T23:16:13.006Z,75.10
2018-12-12T23:18:39.312Z,73.90
2018-12-12T23:21:05.582Z,74.40
2018-12-12T23:23:31.892Z,74.80
2018-12-12T23:25:58.174Z,74.10
2018-12-12T23:28:24.437Z,74.50
2018-12-12T23:30:50.739Z,74.40
2018-12-12T23:33:16.993Z,74.00
2018-12-12T23:35:43.268Z,73.40
2018-12-12T23:38:09.552Z,73.60
2018-12-12T23:40:35.840Z,74.40
2018-12-12T23:43:02.162Z,73.70
2018-12-12T23:45:28.492Z,74.40
2018-12-12T23:47:54.787Z,74.50
2018-12-12T23:50:21.042Z,74.10
2018-12-12T23:52:47.366Z,74.30
2018-12-12T23:55:13.627Z,73.70
2018-12-12T23:57:39.915Z,73.90
